createdAt,value
2018-08-17T00:01:08.248Z,82.00
2018-08-17T00:03:36.747Z,82.30
2018-08-17T00:06:05.653Z,82.60
2018-08-17T00:08:33.673Z,82.80
2018-08-17T00:11:01.512Z,82.80
2018-08-17T00:13:29.387Z,82.60
2018-08-17T00:15:57.077Z,82.50
2018-08-17T00:18:24.918Z,82.60
2018-08-17T00:20:52.710Z,82.40
2018-08-17T00:23:20.541Z,82.60
2018-08-17T00:25:48.374Z,82.60
2018-08-17T00:28:16.028Z,82.70
2018-08-17T00:30:43.738Z,82.80
2018-08-17T00:33:12.268Z,83.00
2018-08-17T00:35:40.557Z,83.20
2018-08-17T00:38:08.964Z,83.40
2018-08-17T00:40:37.356Z,83.80
2018-08-17T00:43:06.881Z,84.40
2018-08-17T00:45:34.897Z,85.20
2018-08-17T00:48:02.695Z,85.60
2018-08-17T00:50:30.457Z,86.00
2018-08-17T00:52:58.225Z,86.30
2018-08-17T00:55:26.181Z,86.60
2018-08-17T00:57:53.837Z,86.80
2018-08-17T01:00:21.547Z,87.10
2018-08-17T01:02:49.257Z,87.60
2018-08-17T01:05:16.933Z,88.50
2018-08-17T01:07:44.601Z,88.30
2018-08-17T01:10:12.417Z,88.70
2018-08-17T01:12:40.145Z,89.30
2018-08-17T01:15:08.101Z,89.80
2018-08-17T01:17:36.473Z,90.10
2018-08-17T01:20:06.318Z,90.20
2018-08-17T01:22:34.028Z,90.40
2018-08-17T01:25:01.923Z,90.60
2018-08-17T01:27:29.690Z,90.90
2018-08-17T01:29:57.504Z,91.20
2018-08-17T01:32:25.396Z,91.40
2018-08-17T01:34:53.070Z,91.80
2018-08-17T01:37:20.746Z,92.20
2018-08-17T01:39:48.394Z,92.80
2018-08-17T01:42:16.222Z,93.10
2018-08-17T01:44:44.000Z,93.30
2018-08-17T01:47:11.932Z,93.60
2018-08-17T01:49:39.846Z,93.90
2018-08-17T01:52:07.987Z,94.10
2018-08-17T01:54:36.336Z,94.20
2018-08-17T01:57:04.115Z,94.60
2018-08-17T01:59:32.008Z,95.00
2018-08-17T02:01:59.740Z,95.40
2018-08-17T02:04:27.453Z,95.60
2018-08-17T02:06:55.158Z,95.50
2018-08-17T02:09:22.942Z,95.10
2018-08-17T02:11:50.637Z,94.90
2018-08-17T02:14:18.264Z,94.80
2018-08-17T02:16:46.120Z,94.90
2018-08-17T02:19:13.827Z,95.00
2018-08-17T02:21:41.564Z,95.20
2018-08-17T02:24:09.220Z,95.60
2018-08-17T02:26:37.026Z,95.80
2018-08-17T02:29:04.681Z,95.90
2018-08-17T02:31:32.576Z,96.00
2018-08-17T02:34:00.499Z,96.20
2018-08-17T02:36:28.223Z,96.30
2018-08-17T02:38:55.967Z,96.30
2018-08-17T02:41:23.743Z,96.40
2018-08-17T02:43:51.479Z,96.60
2018-08-17T02:46:19.465Z,96.90
2018-08-17T02:48:47.113Z,97.10
2018-08-17T02:51:14.761Z,97.50
2018-08-17T02:53:42.540Z,97.80
2018-08-17T02:56:10.229Z,98.10
2018-08-17T02:58:37.960Z,98.30
2018-08-17T03:01:05.685Z,98.60
2018-08-17T03:03:33.435Z,98.80
2018-08-17T03:06:01.269Z,99.00
2018-08-17T03:08:28.961Z,99.40
2018-08-17T03:10:56.635Z,99.70
2018-08-17T03:13:24.390Z,99.90
2018-08-17T03:15:52.251Z,99.90
2018-08-17T03:18:19.904Z,99.90
2018-08-17T03:20:47.598Z,99.90
2018-08-17T03:23:15.406Z,99.90
2018-08-17T03:25:43.146Z,99.90
2018-08-17T03:28:10.809Z,99.90
2018-08-17T03:30:38.572Z,99.90
2018-08-17T03:33:06.335Z,99.90
2018-08-17T03:35:34.086Z,99.90
2018-08-17T03:38:01.816Z,99.90
2018-08-17T03:40:29.703Z,99.90
2018-08-17T03:42:57.462Z,99.90
2018-08-17T03:45:25.376Z,99.90
2018-08-17T03:47:53.064Z,99.90
2018-08-17T03:50:20.952Z,99.90
2018-08-17T03:52:48.730Z,99.90
2018-08-17T03:55:16.494Z,99.90
2018-08-17T03:57:44.317Z,99.90
2018-08-17T04:00:12.104Z,99.90
2018-08-17T04:02:39.797Z,99.90
2018-08-17T04:05:07.648Z,99.90
2018-08-17T04:07:35.350Z,99.90
2018-08-17T04:10:03.312Z,99.90
2018-08-17T04:12:31.023Z,99.90
2018-08-17T04:14:58.709Z,99.90
2018-08-17T04:17:26.438Z,99.90
2018-08-17T04:19:54.246Z,99.90
2018-08-17T04:22:22.031Z,99.90
2018-08-17T04:24:49.681Z,99.90
2018-08-17T04:27:17.541Z,99.90
2018-08-17T04:29:45.617Z,99.90
2018-08-17T04:32:13.329Z,99.90
2018-08-17T04:34:40.982Z,99.90
2018-08-17T04:37:08.682Z,99.90
2018-08-17T04:39:36.583Z,99.90
2018-08-17T04:42:04.398Z,99.90
2018-08-17T04:44:32.233Z,99.90
2018-08-17T04:46:59.943Z,99.90
2018-08-17T04:49:27.695Z,99.90
2018-08-17T04:51:55.543Z,99.90
2018-08-17T04:54:23.396Z,99.90
2018-08-17T04:56:51.072Z,99.90
2018-08-17T04:59:18.838Z,99.90
2018-08-17T05:01:46.666Z,99.90
2018-08-17T05:04:14.322Z,99.90
2018-08-17T05:06:42.302Z,99.90
2018-08-17T05:09:10.079Z,99.90
2018-08-17T05:11:37.847Z,99.90
2018-08-17T05:14:12.568Z,99.90
2018-08-17T05:16:40.273Z,99.90
2018-08-17T05:19:08.037Z,99.90
2018-08-17T05:21:35.841Z,99.90
2018-08-17T05:24:03.566Z,99.90
2018-08-17T05:26:31.411Z,99.90
2018-08-17T05:28:59.206Z,99.80
2018-08-17T05:31:26.965Z,97.50
2018-08-17T05:33:54.704Z,94.40
2018-08-17T05:36:22.458Z,92.30
2018-08-17T05:38:50.267Z,87.90
2018-08-17T05:41:18.144Z,86.00
2018-08-17T05:43:45.890Z,82.20
2018-08-17T05:46:13.618Z,77.20
2018-08-17T05:48:41.406Z,72.30
2018-08-17T05:51:09.210Z,67.90
2018-08-17T05:53:36.926Z,64.40
2018-08-17T05:56:04.717Z,60.60
2018-08-17T05:58:32.497Z,58.30
2018-08-17T06:01:00.184Z,57.40
2018-08-17T06:03:27.933Z,56.00
2018-08-17T06:05:55.691Z,55.00
2018-08-17T06:08:23.374Z,54.20
2018-08-17T06:10:51.311Z,54.10
2018-08-17T06:13:19.126Z,54.30
2018-08-17T06:15:46.822Z,54.80
2018-08-17T06:18:14.582Z,55.30
2018-08-17T06:20:42.368Z,55.80
2018-08-17T06:23:10.089Z,56.60
2018-08-17T06:25:37.899Z,57.30
2018-08-17T06:28:05.666Z,57.60
2018-08-17T06:30:33.369Z,57.90
2018-08-17T06:33:01.145Z,58.70
2018-08-17T06:35:29.201Z,59.20
2018-08-17T06:37:57.013Z,59.30
2018-08-17T06:40:24.713Z,59.30
2018-08-17T06:42:52.578Z,59.80
2018-08-17T06:45:20.273Z,59.70
2018-08-17T06:47:48.022Z,58.90
2018-08-17T06:50:15.885Z,58.80
2018-08-17T06:52:43.735Z,57.90
2018-08-17T06:55:12.080Z,57.70
2018-08-17T06:57:40.374Z,57.30
2018-08-17T07:00:10.865Z,56.80
2018-08-17T07:02:38.781Z,56.50
2018-08-17T07:05:06.873Z,55.80
2018-08-17T07:07:34.594Z,55.60
2018-08-17T07:10:02.472Z,55.30
2018-08-17T07:12:30.329Z,54.60
2018-08-17T07:14:59.066Z,54.10
2018-08-17T07:17:26.866Z,53.90
2018-08-17T07:19:55.083Z,51.90
2018-08-17T07:22:22.886Z,51.90
2018-08-17T07:24:50.543Z,51.80
2018-08-17T07:27:18.338Z,51.20
2018-08-17T07:29:46.298Z,50.30
2018-08-17T07:32:13.942Z,49.30
2018-08-17T07:34:41.664Z,47.90
2018-08-17T07:37:09.502Z,47.00
2018-08-17T07:39:37.338Z,46.70
2018-08-17T07:42:05.230Z,46.70
2018-08-17T07:44:32.948Z,46.10
2018-08-17T07:47:00.684Z,44.60
2018-08-17T07:49:28.404Z,44.60
2018-08-17T07:51:56.181Z,45.40
2018-08-17T07:54:23.886Z,44.50
2018-08-17T07:56:51.701Z,44.40
2018-08-17T07:59:19.355Z,43.60
2018-08-17T08:01:47.043Z,43.60
2018-08-17T08:04:14.700Z,42.50
2018-08-17T08:06:42.469Z,41.90
2018-08-17T08:09:10.739Z,41.40
2018-08-17T08:11:39.880Z,39.90
2018-08-17T08:14:07.904Z,39.40
2018-08-17T08:16:35.618Z,38.10
2018-08-17T08:19:07.945Z,37.50
2018-08-17T08:21:35.979Z,36.20
2018-08-17T08:24:03.879Z,35.30
2018-08-17T08:26:31.585Z,35.00
2018-08-17T08:28:59.248Z,33.30
2018-08-17T08:31:27.409Z,31.80
2018-08-17T08:33:55.230Z,30.50
2018-08-17T08:36:22.957Z,29.90
2018-08-17T08:38:50.667Z,29.40
2018-08-17T08:41:18.455Z,29.10
2018-08-17T08:43:46.265Z,28.70
2018-08-17T08:46:14.070Z,28.40
2018-08-17T08:48:41.761Z,28.10
2018-08-17T08:51:09.471Z,28.30
2018-08-17T08:53:37.176Z,28.90
2018-08-17T08:56:05.045Z,29.70
2018-08-17T08:58:32.635Z,30.40
2018-08-17T09:01:00.459Z,31.50
2018-08-17T09:03:28.349Z,33.10
2018-08-17T09:05:56.083Z,35.00
2018-08-17T09:08:23.770Z,37.30
2018-08-17T09:10:51.479Z,39.60
2018-08-17T09:13:19.109Z,41.70
2018-08-17T09:15:46.880Z,43.50
2018-08-17T09:18:14.578Z,44.80
2018-08-17T09:20:42.400Z,45.50
2018-08-17T09:23:10.009Z,47.10
2018-08-17T09:25:37.745Z,48.20
2018-08-17T09:28:05.441Z,48.70
2018-08-17T09:30:33.157Z,49.40
2018-08-17T09:33:00.894Z,49.70
2018-08-17T09:35:28.594Z,50.40
2018-08-17T09:37:56.380Z,50.50
2018-08-17T09:40:24.166Z,50.50
2018-08-17T09:42:51.771Z,50.70
2018-08-17T09:45:19.475Z,51.30
2018-08-17T09:47:47.190Z,51.80
2018-08-17T09:50:15.434Z,52.20
2018-08-17T09:52:43.408Z,51.90
2018-08-17T09:55:11.352Z,51.90
2018-08-17T09:57:39.019Z,52.50
2018-08-17T10:00:08.547Z,52.40
2018-08-17T10:02:42.132Z,52.80
2018-08-17T10:05:15.388Z,52.60
2018-08-17T10:07:48.895Z,52.50
2018-08-17T10:10:17.462Z,52.70
2018-08-17T10:12:45.802Z,53.20
2018-08-17T10:15:13.556Z,53.50
2018-08-17T10:17:41.568Z,53.50
2018-08-17T10:20:14.555Z,53.50
2018-08-17T10:22:42.528Z,53.30
2018-08-17T10:25:14.992Z,53.00
2018-08-17T10:27:43.273Z,53.80
2018-08-17T10:30:11.082Z,54.00
2018-08-17T10:32:57.821Z,54.20
2018-08-17T10:35:33.542Z,54.40
2018-08-17T10:38:02.615Z,54.20
2018-08-17T10:40:30.333Z,54.30
2018-08-17T10:42:59.933Z,54.60
2018-08-17T10:45:28.034Z,54.70
2018-08-17T10:47:56.288Z,54.80
2018-08-17T10:50:25.476Z,55.50
2018-08-17T10:52:55.335Z,55.30
2018-08-17T10:55:28.741Z,55.30
2018-08-17T10:57:56.484Z,55.60
2018-08-17T11:00:24.156Z,55.40
2018-08-17T11:02:51.926Z,55.50
2018-08-17T11:05:19.798Z,55.70
2018-08-17T11:07:48.420Z,55.70
2018-08-17T11:10:16.092Z,56.20
2018-08-17T11:12:46.171Z,56.40
2018-08-17T11:15:14.377Z,56.60
2018-08-17T11:17:43.833Z,56.70
2018-08-17T11:20:11.777Z,57.00
2018-08-17T11:22:39.477Z,56.90
2018-08-17T11:25:07.789Z,56.90
2018-08-17T11:27:36.138Z,57.00
2018-08-17T11:30:07.332Z,57.40
2018-08-17T11:32:35.086Z,57.50
2018-08-17T11:35:02.996Z,57.50
2018-08-17T11:37:30.754Z,57.40
2018-08-17T11:40:01.397Z,57.50
2018-08-17T11:42:35.142Z,57.40
2018-08-17T11:45:04.438Z,57.10
2018-08-17T11:47:32.286Z,57.00
2018-08-17T11:50:00.057Z,57.20
2018-08-17T11:52:28.600Z,57.10
2018-08-17T11:54:56.422Z,57.20
2018-08-17T11:57:24.186Z,57.00
2018-08-17T11:59:57.805Z,57.10
2018-08-17T12:02:25.631Z,57.10
2018-08-17T12:04:53.378Z,56.70
2018-08-17T12:07:21.333Z,56.70
2018-08-17T12:09:54.454Z,56.70
2018-08-17T12:12:22.214Z,56.60
2018-08-17T12:14:49.919Z,57.00
2018-08-17T12:17:18.246Z,57.00
2018-08-17T12:19:45.926Z,57.00
2018-08-17T12:22:13.630Z,57.00
2018-08-17T12:24:41.824Z,57.10
2018-08-17T12:27:10.645Z,57.20
2018-08-17T12:29:40.618Z,57.40
2018-08-17T12:32:09.696Z,57.50
2018-08-17T12:34:39.688Z,56.90
2018-08-17T12:37:07.362Z,56.50
2018-08-17T12:39:35.204Z,56.50
2018-08-17T12:42:03.121Z,56.40
2018-08-17T12:44:31.082Z,56.50
2018-08-17T12:46:58.798Z,56.30
2018-08-17T12:49:27.226Z,56.30
2018-08-17T12:51:55.109Z,56.00
2018-08-17T12:54:40.744Z,56.00
2018-08-17T12:57:08.426Z,56.00
2018-08-17T12:59:36.125Z,55.80
2018-08-17T13:02:04.217Z,55.80
2018-08-17T13:04:31.866Z,55.70
2018-08-17T13:06:59.797Z,55.80
2018-08-17T13:09:27.603Z,55.90
2018-08-17T13:11:56.255Z,56.00
2018-08-17T13:14:24.255Z,55.70
2018-08-17T13:16:52.740Z,55.50
2018-08-17T13:19:20.572Z,55.40
2018-08-17T13:21:48.207Z,55.70
2018-08-17T13:24:16.040Z,55.70
2018-08-17T13:26:43.859Z,55.60
2018-08-17T13:29:11.628Z,55.60
2018-08-17T13:31:39.388Z,55.50
2018-08-17T13:34:07.112Z,55.30
2018-08-17T13:36:34.956Z,55.30
2018-08-17T13:39:03.160Z,55.40
2018-08-17T13:41:30.858Z,55.50
2018-08-17T13:43:58.585Z,55.40
2018-08-17T13:46:26.360Z,55.40
2018-08-17T13:48:54.274Z,54.60
2018-08-17T13:51:22.036Z,54.40
2018-08-17T13:53:49.805Z,54.20
2018-08-17T13:56:17.657Z,54.10
2018-08-17T13:58:45.613Z,54.00
2018-08-17T14:01:13.400Z,54.30
2018-08-17T14:03:41.041Z,54.00
2018-08-17T14:06:08.702Z,53.60
2018-08-17T14:08:36.475Z,53.70
2018-08-17T14:11:04.561Z,52.60
2018-08-17T14:13:32.334Z,52.60
2018-08-17T14:16:00.203Z,53.00
2018-08-17T14:18:27.959Z,52.90
2018-08-17T14:20:55.707Z,53.20
2018-08-17T14:23:23.444Z,53.60
2018-08-17T14:25:51.249Z,54.20
2018-08-17T14:28:18.979Z,54.10
2018-08-17T14:30:46.925Z,53.90
2018-08-17T14:33:14.658Z,53.70
2018-08-17T14:35:42.329Z,54.00
2018-08-17T14:38:10.177Z,53.60
2018-08-17T14:40:37.868Z,53.80
2018-08-17T14:43:05.642Z,54.10
2018-08-17T14:45:33.365Z,54.10
2018-08-17T14:48:01.270Z,54.00
2018-08-17T14:50:29.132Z,54.10
2018-08-17T14:52:57.102Z,54.20
2018-08-17T14:55:24.818Z,53.90
2018-08-17T14:57:52.633Z,54.20
2018-08-17T15:00:20.443Z,54.40
2018-08-17T15:02:48.096Z,54.20
2018-08-17T15:05:15.976Z,54.20
2018-08-17T15:07:43.812Z,54.30
2018-08-17T15:10:13.168Z,54.40
2018-08-17T15:12:41.906Z,54.60
2018-08-17T15:15:10.961Z,54.20
2018-08-17T15:17:38.692Z,54.00
2018-08-17T15:20:08.314Z,54.10
2018-08-17T15:22:36.056Z,53.90
2018-08-17T15:25:04.105Z,53.70
2018-08-17T15:27:31.785Z,53.60
2018-08-17T15:29:59.540Z,53.90
2018-08-17T15:32:27.241Z,54.40
2018-08-17T15:34:54.910Z,54.20
2018-08-17T15:37:22.637Z,54.20
2018-08-17T15:39:50.415Z,54.20
2018-08-17T15:42:18.193Z,54.80
2018-08-17T15:44:46.003Z,55.30
2018-08-17T15:47:14.045Z,56.00
2018-08-17T15:49:52.000Z,56.10
2018-08-17T15:52:19.690Z,56.10
2018-08-17T15:54:47.561Z,56.50
2018-08-17T15:57:15.294Z,56.90
2018-08-17T15:59:43.211Z,57.20
2018-08-17T16:02:10.938Z,57.50
2018-08-17T16:04:38.768Z,57.90
2018-08-17T16:07:06.586Z,58.10
2018-08-17T16:09:34.269Z,58.40
2018-08-17T16:12:02.084Z,58.80
2018-08-17T16:14:29.818Z,59.20
2018-08-17T16:16:57.633Z,59.30
2018-08-17T16:19:25.365Z,59.70
2018-08-17T16:21:53.161Z,60.00
2018-08-17T16:24:20.809Z,60.50
2018-08-17T16:26:48.557Z,60.50
2018-08-17T16:29:16.306Z,60.70
2018-08-17T16:31:44.037Z,60.80
2018-08-17T16:34:11.802Z,61.30
2018-08-17T16:36:42.111Z,61.40
2018-08-17T16:39:16.151Z,61.50
2018-08-17T16:41:44.101Z,61.20
2018-08-17T16:44:12.705Z,61.40
2018-08-17T16:46:41.656Z,61.40
2018-08-17T16:49:09.566Z,61.70
2018-08-17T16:51:37.720Z,61.90
2018-08-17T16:54:05.604Z,62.40
2018-08-17T16:56:33.453Z,62.50
2018-08-17T16:59:01.508Z,62.70
2018-08-17T17:01:29.510Z,62.90
2018-08-17T17:03:57.262Z,63.10
2018-08-17T17:06:25.208Z,63.30
2018-08-17T17:09:01.992Z,63.80
2018-08-17T17:11:29.776Z,64.10
2018-08-17T17:13:57.579Z,64.10
2018-08-17T17:16:37.971Z,64.20
2018-08-17T17:19:11.430Z,64.10
2018-08-17T17:21:40.746Z,64.40
2018-08-17T17:24:08.567Z,64.90
2018-08-17T17:26:36.307Z,65.00
2018-08-17T17:29:04.510Z,65.30
2018-08-17T17:31:32.339Z,65.60
2018-08-17T17:34:00.065Z,66.10
2018-08-17T17:36:27.813Z,66.10
2018-08-17T17:38:55.669Z,66.50
2018-08-17T17:41:23.389Z,66.70
2018-08-17T17:43:51.205Z,66.80
2018-08-17T17:46:18.937Z,67.10
2018-08-17T17:48:46.629Z,67.50
2018-08-17T17:51:14.387Z,67.90
2018-08-17T17:53:42.130Z,67.70
2018-08-17T17:56:09.960Z,68.10
2018-08-17T17:58:37.659Z,67.90
2018-08-17T18:01:06.557Z,68.10
2018-08-17T18:03:34.220Z,68.40
2018-08-17T18:06:06.018Z,68.50
2018-08-17T18:08:33.728Z,68.60
2018-08-17T18:11:01.460Z,68.90
2018-08-17T18:13:29.912Z,69.20
2018-08-17T18:15:57.628Z,69.30
2018-08-17T18:18:25.416Z,69.50
2018-08-17T18:20:53.091Z,69.70
2018-08-17T18:23:21.343Z,70.00
2018-08-17T18:25:49.221Z,70.20
2018-08-17T18:28:17.523Z,70.50
2018-08-17T18:30:45.317Z,70.50
2018-08-17T18:33:12.916Z,71.60
2018-08-17T18:35:40.662Z,71.40
2018-08-17T18:38:09.477Z,71.80
2018-08-17T18:40:37.253Z,72.20
2018-08-17T18:43:04.951Z,72.50
2018-08-17T18:45:32.734Z,72.80
2018-08-17T18:48:00.464Z,73.30
2018-08-17T18:50:28.280Z,73.60
2018-08-17T18:52:56.122Z,74.00
2018-08-17T18:55:23.934Z,74.40
2018-08-17T18:57:51.686Z,75.00
2018-08-17T19:00:19.468Z,75.10
2018-08-17T19:02:47.250Z,75.80
2018-08-17T19:05:15.086Z,75.90
2018-08-17T19:07:42.902Z,76.30
2018-08-17T19:10:10.883Z,76.70
2018-08-17T19:12:38.546Z,77.00
2018-08-17T19:15:08.953Z,77.60
2018-08-17T19:17:37.191Z,77.90
2018-08-17T19:20:07.322Z,78.30
2018-08-17T19:22:39.932Z,78.50
2018-08-17T19:25:09.479Z,79.00
2018-08-17T19:27:37.805Z,79.20
2018-08-17T19:30:21.673Z,79.50
2018-08-17T19:32:49.784Z,79.90
2018-08-17T19:35:17.964Z,80.10
2018-08-17T19:37:45.783Z,80.50
2018-08-17T19:40:13.518Z,80.90
2018-08-17T19:42:41.227Z,80.90
2018-08-17T19:45:09.042Z,81.30
2018-08-17T19:47:36.785Z,81.70
2018-08-17T19:50:04.721Z,82.00
2018-08-17T19:52:32.460Z,82.40
2018-08-17T19:55:00.156Z,82.60
2018-08-17T19:57:27.878Z,82.80
2018-08-17T19:59:55.731Z,83.00
2018-08-17T20:02:23.413Z,83.30
2018-08-17T20:04:51.118Z,83.60
2018-08-17T20:07:18.939Z,83.80
2018-08-17T20:09:46.670Z,84.10
2018-08-17T20:12:14.376Z,84.40
2018-08-17T20:14:42.200Z,84.90
2018-08-17T20:17:09.866Z,85.00
2018-08-17T20:19:43.508Z,85.40
2018-08-17T20:22:20.566Z,85.80
2018-08-17T20:24:48.852Z,86.20
2018-08-17T20:27:17.392Z,87.40
2018-08-17T20:29:45.376Z,87.20
2018-08-17T20:32:13.171Z,87.60
2018-08-17T20:34:43.723Z,88.00
2018-08-17T20:37:12.786Z,88.60
2018-08-17T20:39:41.986Z,89.00
2018-08-17T20:42:10.348Z,89.30
2018-08-17T20:44:38.077Z,89.90
2018-08-17T20:47:05.920Z,90.10
2018-08-17T20:49:33.603Z,90.40
2018-08-17T20:52:02.435Z,90.70
2018-08-17T20:54:30.718Z,91.00
2018-08-17T20:56:58.985Z,91.20
2018-08-17T20:59:26.776Z,91.50
2018-08-17T21:01:54.576Z,91.80
2018-08-17T21:04:22.248Z,92.00
2018-08-17T21:06:49.948Z,92.30
2018-08-17T21:09:17.902Z,92.60
2018-08-17T21:11:45.713Z,92.90
2018-08-17T21:14:13.513Z,93.10
2018-08-17T21:16:41.215Z,93.40
2018-08-17T21:19:08.952Z,93.60
2018-08-17T21:21:36.799Z,93.90
2018-08-17T21:24:04.502Z,94.10
2018-08-17T21:26:32.867Z,94.40
2018-08-17T21:29:01.814Z,94.60
2018-08-17T21:31:29.685Z,94.80
2018-08-17T21:33:57.357Z,95.00
2018-08-17T21:36:25.157Z,95.10
2018-08-17T21:39:11.073Z,95.30
2018-08-17T21:41:40.562Z,95.50
2018-08-17T21:44:09.947Z,95.50
2018-08-17T21:46:37.774Z,95.80
2018-08-17T21:49:05.520Z,96.00
2018-08-17T21:51:33.856Z,96.30
2018-08-17T21:54:02.573Z,96.50
2018-08-17T21:56:30.513Z,96.80
2018-08-17T21:58:58.280Z,97.10
2018-08-17T22:01:26.055Z,97.30
2018-08-17T22:03:53.764Z,97.60
2018-08-17T22:06:21.575Z,97.80
2018-08-17T22:08:49.239Z,98.00
2018-08-17T22:11:36.830Z,98.40
2018-08-17T22:14:05.426Z,98.70
2018-08-17T22:16:33.148Z,99.00
2018-08-17T22:19:02.023Z,99.30
2018-08-17T22:21:29.990Z,99.60
2018-08-17T22:23:57.690Z,99.90
2018-08-17T22:26:25.478Z,99.90
2018-08-17T22:28:53.595Z,99.90
2018-08-17T22:31:33.152Z,99.90
2018-08-17T22:34:00.948Z,99.90
2018-08-17T22:36:30.741Z,99.90
2018-08-17T22:38:58.603Z,99.90
2018-08-17T22:41:26.649Z,99.90
2018-08-17T22:43:54.817Z,99.90
2018-08-17T22:46:22.534Z,99.90
2018-08-17T22:48:50.383Z,99.90
2018-08-17T22:51:18.241Z,99.90
2018-08-17T22:53:45.913Z,99.90
2018-08-17T22:56:13.722Z,99.90
2018-08-17T22:58:47.456Z,99.90
2018-08-17T23:01:15.436Z,99.90
2018-08-17T23:03:48.944Z,99.90
2018-08-17T23:06:16.876Z,99.90
2018-08-17T23:08:44.540Z,99.90
2018-08-17T23:11:23.562Z,99.90
2018-08-17T23:13:51.454Z,99.90
2018-08-17T23:16:19.290Z,99.90
2018-08-17T23:18:47.001Z,99.90
2018-08-17T23:21:14.802Z,99.90
2018-08-17T23:23:42.551Z,99.90
2018-08-17T23:26:10.354Z,99.90
2018-08-17T23:28:38.030Z,99.90
2018-08-17T23:31:05.984Z,99.90
2018-08-17T23:33:33.654Z,99.90
2018-08-17T23:36:01.402Z,99.90
2018-08-17T23:38:29.255Z,99.90
2018-08-17T23:40:57.012Z,99.90
2018-08-17T23:43:24.690Z,99.90
2018-08-17T23:45:52.372Z,99.90
2018-08-17T23:48:20.492Z,99.90
2018-08-17T23:50:48.274Z,99.90
2018-08-17T23:53:16.144Z,99.90
2018-08-17T23:55:43.893Z,99.90
2018-08-17T23:58:11.546Z,99.90
